createdAt,value
2022-12-11T00:02:29.411Z,9.55
2022-12-11T00:07:36.822Z,7.78
2022-12-11T00:12:44.354Z,7.03
2022-12-11T00:17:49.086Z,9.05
2022-12-11T00:22:56.363Z,8.20
2022-12-11T00:28:00.998Z,9.10
2022-12-11T00:33:05.660Z,14.82
2022-12-11T00:38:16.905Z,13.45
2022-12-11T00:43:21.609Z,11.25
2022-12-11T00:48:26.496Z,8.40
2022-12-11T00:53:34.200Z,8.75
2022-12-11T00:58:39.235Z,6.63
2022-12-11T01:03:44.756Z,8.95
2022-12-11T01:09:12.465Z,5.63
2022-12-11T01:14:17.309Z,5.25
2022-12-11T01:19:22.013Z,6.28
2022-12-11T01:24:29.549Z,3.50
2022-12-11T01:29:34.317Z,3.67
2022-12-11T01:34:39.491Z,4.57
2022-12-11T01:39:46.800Z,4.00
2022-12-11T01:45:06.465Z,3.60
2022-12-11T01:50:11.460Z,4.53
2022-12-11T01:55:19.125Z,2.47
2022-12-11T02:00:24.624Z,2.38
2022-12-11T02:05:29.373Z,1.55
2022-12-11T02:10:42.096Z,1.92
2022-12-11T02:15:51.992Z,2.67
2022-12-11T02:21:01.725Z,6.45
2022-12-11T02:26:15.504Z,5.80
2022-12-11T02:31:25.282Z,6.07
2022-12-11T02:36:32.616Z,4.80
2022-12-11T02:41:37.613Z,4.30
2022-12-11T02:46:46.017Z,6.63
2022-12-11T02:51:50.873Z,4.22
2022-12-11T02:56:57.403Z,7.57
2022-12-11T03:02:05.271Z,3.67
2022-12-11T03:07:12.458Z,5.45
2022-12-11T03:12:20.285Z,4.63
2022-12-11T03:17:32.458Z,6.07
2022-12-11T03:22:40.414Z,4.78
2022-12-11T03:27:48.156Z,4.63
2022-12-11T03:32:58.307Z,5.20
2022-12-11T03:38:05.333Z,4.90
2022-12-11T03:43:10.377Z,5.85
2022-12-11T03:48:18.425Z,5.03
2022-12-11T03:53:24.498Z,5.47
2022-12-11T03:58:29.342Z,5.78
2022-12-11T04:03:36.744Z,6.07
2022-12-11T04:08:41.503Z,5.20
2022-12-11T04:13:46.307Z,5.30
2022-12-11T04:19:20.533Z,5.28
2022-12-11T04:24:25.268Z,6.20
2022-12-11T04:29:29.993Z,6.05
2022-12-11T04:34:37.333Z,6.20
2022-12-11T04:39:45.228Z,6.45
2022-12-11T04:44:50.006Z,6.57
2022-12-11T04:49:57.371Z,5.93
2022-12-11T04:55:02.204Z,6.40
2022-12-11T05:00:08.373Z,5.63
2022-12-11T05:05:15.768Z,6.25
2022-12-11T05:10:20.616Z,6.10
2022-12-11T05:15:25.413Z,5.43
2022-12-11T05:20:32.804Z,5.32
2022-12-11T05:25:37.605Z,5.30
2022-12-11T05:30:42.345Z,5.75
2022-12-11T05:35:52.801Z,5.63
2022-12-11T05:41:01.192Z,4.97
2022-12-11T05:46:11.831Z,5.53
2022-12-11T05:51:20.013Z,5.68
2022-12-11T05:56:25.461Z,5.80
2022-12-11T06:01:32.146Z,6.40
2022-12-11T06:06:40.733Z,5.95
2022-12-11T06:11:45.826Z,5.82
2022-12-11T06:16:50.637Z,6.78
2022-12-11T06:21:58.170Z,7.40
2022-12-11T06:27:02.897Z,8.05
2022-12-11T06:32:07.984Z,7.03
2022-12-11T06:37:15.437Z,7.85
2022-12-11T06:42:20.297Z,7.93
2022-12-11T06:47:25.022Z,7.28
2022-12-11T06:52:33.133Z,7.55
2022-12-11T06:57:38.673Z,8.05
2022-12-11T07:02:43.396Z,7.38
2022-12-11T07:07:51.040Z,8.32
2022-12-11T07:12:56.283Z,9.27
2022-12-11T07:18:01.006Z,9.60
2022-12-11T07:23:09.289Z,9.63
2022-12-11T07:28:16.819Z,9.18
2022-12-11T07:33:21.796Z,9.85
2022-12-11T07:38:29.330Z,10.15
2022-12-11T07:43:34.347Z,11.30
2022-12-11T07:48:39.206Z,10.85
2022-12-11T07:53:46.758Z,36.55
2022-12-11T07:58:51.588Z,13.73
2022-12-11T08:03:56.667Z,12.50
2022-12-11T08:09:04.942Z,10.07
2022-12-11T08:14:09.769Z,11.23
2022-12-11T08:19:14.631Z,10.80
2022-12-11T08:24:22.093Z,16.05
2022-12-11T08:29:26.824Z,34.65
2022-12-11T08:34:31.746Z,19.27
2022-12-11T08:39:39.107Z,20.63
2022-12-11T08:44:43.916Z,32.45
2022-12-11T08:49:48.667Z,39.22
2022-12-11T08:54:56.117Z,18.58
2022-12-11T09:00:01.151Z,18.13
2022-12-11T09:05:08.402Z,15.68
2022-12-11T09:10:15.964Z,27.25
2022-12-11T09:15:20.809Z,42.95
2022-12-11T09:20:25.544Z,19.58
2022-12-11T09:25:32.885Z,15.07
2022-12-11T09:30:37.681Z,21.45
2022-12-11T09:35:43.319Z,19.40
2022-12-11T09:40:50.699Z,13.88
2022-12-11T09:45:56.569Z,31.73
2022-12-11T09:51:01.326Z,18.55
2022-12-11T09:56:14.670Z,22.10
2022-12-11T10:01:24.076Z,20.98
2022-12-11T10:06:31.484Z,21.08
2022-12-11T10:12:00.351Z,23.33
2022-12-11T10:17:13.022Z,15.77
2022-12-11T10:22:20.865Z,13.13
2022-12-11T10:27:28.715Z,13.70
2022-12-11T10:32:43.642Z,16.35
2022-12-11T10:37:48.390Z,21.13
2022-12-11T10:42:56.284Z,25.35
2022-12-11T10:48:13.695Z,21.88
2022-12-11T10:53:24.324Z,18.13
2022-12-11T10:58:32.051Z,23.70
2022-12-11T11:03:44.015Z,17.20
2022-12-11T11:08:49.651Z,18.13
2022-12-11T11:13:54.944Z,26.58
2022-12-11T11:19:02.431Z,18.75
2022-12-11T11:24:07.330Z,12.57
2022-12-11T11:29:22.711Z,20.73
2022-12-11T11:34:31.169Z,20.50
2022-12-11T11:39:38.397Z,19.83
2022-12-11T11:44:45.725Z,24.05
2022-12-11T11:49:56.142Z,11.18
2022-12-11T12:00:11.068Z,11.05
2022-12-11T12:05:18.839Z,22.15
2022-12-11T12:10:25.272Z,36.92
2022-12-11T12:15:36.174Z,37.17
2022-12-11T12:20:46.290Z,34.67
2022-12-11T12:25:54.555Z,29.80
2022-12-11T12:31:09.600Z,30.17
2022-12-11T12:36:20.226Z,18.85
2022-12-11T12:41:27.892Z,13.63
2022-12-11T12:46:42.688Z,20.73
2022-12-11T12:51:50.434Z,25.85
2022-12-11T12:56:55.250Z,30.90
2022-12-11T13:02:01.744Z,26.10
2022-12-11T13:07:23.696Z,23.05
2022-12-11T13:12:34.863Z,16.48
2022-12-11T13:17:40.748Z,15.73
2022-12-11T13:22:57.817Z,16.02
2022-12-11T13:28:09.434Z,13.05
2022-12-11T13:33:18.764Z,23.27
2022-12-11T13:38:27.008Z,14.73
2022-12-11T13:43:32.901Z,16.55
2022-12-11T13:48:39.721Z,16.38
2022-12-11T13:53:49.977Z,14.77
2022-12-11T13:58:54.800Z,13.02
2022-12-11T14:04:01.021Z,14.60
2022-12-11T14:09:08.737Z,16.50
2022-12-11T14:14:19.283Z,15.20
2022-12-11T14:19:25.158Z,15.25
2022-12-11T14:24:33.027Z,20.00
2022-12-11T14:29:37.652Z,18.45
2022-12-11T14:34:45.192Z,16.63
2022-12-11T14:39:55.248Z,16.45
2022-12-11T14:45:01.651Z,15.93
2022-12-11T14:50:08.497Z,17.48
2022-12-11T14:55:18.773Z,17.60
2022-12-11T15:00:24.827Z,16.67
2022-12-11T15:05:29.904Z,16.88
2022-12-11T15:10:40.350Z,16.70
2022-12-11T15:15:47.357Z,22.70
2022-12-11T15:20:53.928Z,20.92
2022-12-11T15:26:02.421Z,18.00
2022-12-11T15:31:08.745Z,16.23
2022-12-11T15:36:24.666Z,19.30
2022-12-11T15:41:34.803Z,30.45
2022-12-11T15:46:39.833Z,15.15
2022-12-11T15:51:44.682Z,19.58
2022-12-11T15:56:52.078Z,16.15
2022-12-11T16:01:56.854Z,30.08
2022-12-11T16:07:01.735Z,15.13
2022-12-11T16:12:09.352Z,26.70
2022-12-11T16:17:14.414Z,18.77
2022-12-11T16:22:19.746Z,34.20
2022-12-11T16:27:27.166Z,40.88
2022-12-11T16:32:31.887Z,29.98
2022-12-11T16:37:36.601Z,16.90
2022-12-11T16:42:43.882Z,12.77
2022-12-11T16:47:48.511Z,11.65
2022-12-11T16:52:53.329Z,11.15
2022-12-11T16:58:00.624Z,11.10
2022-12-11T17:03:05.590Z,13.77
2022-12-11T17:08:10.600Z,12.85
2022-12-11T17:13:18.018Z,12.80
2022-12-11T17:18:22.898Z,10.50
2022-12-11T17:23:28.020Z,11.95
2022-12-11T17:28:35.323Z,10.77
2022-12-11T17:33:40.097Z,10.70
2022-12-11T17:38:44.924Z,9.73
2022-12-11T17:43:52.816Z,10.95
2022-12-11T17:49:00.251Z,12.73
2022-12-11T17:54:05.052Z,15.50
2022-12-11T17:59:12.457Z,22.45
2022-12-11T18:04:17.248Z,12.45
2022-12-11T18:09:21.927Z,11.70
2022-12-11T18:14:29.253Z,12.55
2022-12-11T18:19:34.120Z,14.68
2022-12-11T18:24:38.919Z,29.15
2022-12-11T18:29:46.341Z,18.23
2022-12-11T18:34:51.102Z,13.93
2022-12-11T18:39:56.293Z,15.90
2022-12-11T18:45:04.082Z,13.73
2022-12-11T18:50:09.027Z,16.85
2022-12-11T18:55:14.009Z,16.40
2022-12-11T19:00:22.384Z,14.27
2022-12-11T19:05:27.153Z,13.52
2022-12-11T19:10:32.064Z,23.35
2022-12-11T19:15:40.355Z,14.52
2022-12-11T19:20:49.994Z,23.83
2022-12-11T19:25:57.102Z,18.88
2022-12-11T19:31:04.629Z,18.83
2022-12-11T19:36:11.168Z,17.95
2022-12-11T19:41:16.944Z,22.48
2022-12-11T19:46:24.946Z,18.88
2022-12-11T19:51:31.485Z,14.32
2022-12-11T19:56:37.119Z,15.30
2022-12-11T20:01:44.515Z,20.30
2022-12-11T20:06:50.068Z,15.95
2022-12-11T20:11:54.799Z,20.80
2022-12-11T20:17:11.832Z,14.60
2022-12-11T20:22:17.891Z,14.00
2022-12-11T20:27:22.737Z,14.82
2022-12-11T20:32:30.268Z,14.45
2022-12-11T20:37:35.369Z,9.90
2022-12-11T20:42:40.784Z,9.70
2022-12-11T20:47:48.694Z,11.23
2022-12-11T20:52:53.553Z,11.50
2022-12-11T20:57:58.267Z,14.15
2022-12-11T21:03:05.944Z,12.35
2022-12-11T21:08:10.803Z,12.10
2022-12-11T21:13:16.940Z,10.80
2022-12-11T21:18:24.484Z,10.15
2022-12-11T21:23:29.645Z,10.30
2022-12-11T21:28:35.752Z,9.57
2022-12-11T21:33:43.358Z,11.63
2022-12-11T21:38:48.559Z,18.60
2022-12-11T21:49:21.832Z,16.77
2022-12-11T21:54:26.540Z,10.60
2022-12-11T21:59:32.872Z,11.75
2022-12-11T22:04:40.846Z,11.65
2022-12-11T22:09:45.553Z,18.42
2022-12-11T22:14:50.292Z,11.88
2022-12-11T22:19:57.652Z,17.05
2022-12-11T22:25:03.748Z,14.57
2022-12-11T22:30:09.185Z,13.93
2022-12-11T22:35:16.696Z,16.83
2022-12-11T22:40:21.513Z,12.13
2022-12-11T22:45:26.759Z,14.20
2022-12-11T22:50:34.072Z,11.80
2022-12-11T22:55:41.386Z,16.50
2022-12-11T23:00:46.184Z,15.88
2022-12-11T23:05:53.540Z,11.88
2022-12-11T23:10:58.259Z,15.75
2022-12-11T23:16:02.960Z,18.00
2022-12-11T23:21:10.550Z,16.70
2022-12-11T23:26:15.940Z,12.57
2022-12-11T23:31:20.812Z,13.13
2022-12-11T23:36:28.718Z,17.88
2022-12-11T23:41:33.508Z,16.60
2022-12-11T23:46:38.336Z,10.50
2022-12-11T23:51:45.819Z,30.90
2022-12-11T23:56:50.541Z,14.50
